Time;durP1;ratioP1;P1;durP2;ratioP2;P2;SDS_P1;SDS_P2;PMS_P1;PMS_P2;Temp;Humidity;BMP_temperature;BMP_pressure;BME280_temperature;BME280_humidity;BME280_pressure;Samples;Min_cycle;Max_cycle;Signal;HPM_P1;HPM_P2
2022/09/06 00:00:15;;;;;;;;;;;17.70;99.90;;;;;;5016926;28;19980;-88
2022/09/06 00:02:42;;;;;;;;;;;17.60;99.90;;;;;;5033534;28;19913;-88
2022/09/06 00:05:08;;;;;;;;;;;17.60;99.90;;;;;;5016845;28;20388;-89
2022/09/06 00:07:34;;;;;;;;;;;17.50;99.90;;;;;;5013761;28;19920;-89
2022/09/06 00:10:00;;;;;;;;;;;17.50;99.90;;;;;;5013703;28;19913;-90
2022/09/06 00:12:26;;;;;;;;;;;17.40;99.90;;;;;;5013855;28;19921;-89
2022/09/06 00:14:52;;;;;;;;;;;17.40;99.90;;;;;;5013642;28;20015;-90
2022/09/06 00:17:18;;;;;;;;;;;17.30;99.90;;;;;;5027596;28;20027;-89
2022/09/06 00:19:43;;;;;;;;;;;17.30;99.90;;;;;;5030053;28;19917;-89
2022/09/06 00:22:09;;;;;;;;;;;17.20;99.90;;;;;;5030577;28;19928;-89
2022/09/06 00:24:36;;;;;;;;;;;17.20;99.90;;;;;;5013474;28;20017;-89
2022/09/06 00:27:05;;;;;;;;;;;17.10;99.90;;;;;;5030281;28;19967;-88
2022/09/06 00:29:31;;;;;;;;;;;17.10;99.90;;;;;;5030414;28;19913;-90
2022/09/06 00:31:58;;;;;;;;;;;17.10;99.90;;;;;;5030517;28;19972;-89
2022/09/06 00:34:24;;;;;;;;;;;17.10;99.90;;;;;;5030719;28;19917;-88
2022/09/06 00:36:49;;;;;;;;;;;17.00;99.90;;;;;;5033902;28;19921;-88
2022/09/06 00:39:15;;;;;;;;;;;17.00;99.90;;;;;;5033481;28;19936;-89
2022/09/06 00:41:40;;;;;;;;;;;17.00;99.90;;;;;;5031061;28;20012;-89
2022/09/06 00:44:06;;;;;;;;;;;17.00;99.90;;;;;;5013993;28;20008;-89
2022/09/06 00:46:32;;;;;;;;;;;17.00;99.90;;;;;;5013523;28;19921;-89
2022/09/06 00:49:03;;;;;;;;;;;17.10;99.90;;;;;;5013097;28;19913;-89
2022/09/06 00:51:29;;;;;;;;;;;17.10;99.90;;;;;;5032837;28;19921;-91
2022/09/06 00:53:55;;;;;;;;;;;17.10;99.90;;;;;;5033007;28;19916;-89
2022/09/06 00:56:22;;;;;;;;;;;17.20;99.90;;;;;;5034465;28;19917;-89
2022/09/06 00:58:48;;;;;;;;;;;17.20;99.90;;;;;;5014082;28;20317;-90
2022/09/06 01:01:14;;;;;;;;;;;17.20;99.90;;;;;;5012845;28;20684;-89
2022/09/06 01:03:40;;;;;;;;;;;17.20;99.90;;;;;;4996415;28;19964;-88
2022/09/06 01:06:17;;;;;;;;;;;17.20;99.90;;;;;;5013048;28;20016;-88
2022/09/06 01:09:05;;;;;;;;;;;17.10;99.90;;;;;;4996870;28;19964;-89
2022/09/06 01:11:37;;;;;;;;;;;17.10;99.90;;;;;;5007619;28;20301;-89
2022/09/06 01:14:13;;;;;;;;;;;17.00;99.90;;;;;;5032400;28;19967;-89
2022/09/06 01:17:09;;;;;;;;;;;16.90;99.90;;;;;;5015863;28;19913;-89
2022/09/06 01:19:34;;;;;;;;;;;16.90;99.90;;;;;;5015769;28;19913;-89
2022/09/06 01:22:06;;;;;;;;;;;16.80;99.90;;;;;;5047940;28;19912;-89
2022/09/06 01:24:41;;;;;;;;;;;16.80;99.90;;;;;;5035498;28;19920;-91
2022/09/06 01:27:13;;;;;;;;;;;16.70;99.90;;;;;;5052047;28;20017;-91
2022/09/06 01:30:04;;;;;;;;;;;16.70;99.90;;;;;;5034970;28;19935;-88
2022/09/06 01:32:48;;;;;;;;;;;16.60;99.90;;;;;;5050575;28;20262;-88
2022/09/06 01:35:33;;;;;;;;;;;16.60;99.90;;;;;;5032288;28;19921;-89
2022/09/06 01:38:00;;;;;;;;;;;16.60;99.90;;;;;;5032916;28;19913;-90
2022/09/06 01:40:27;;;;;;;;;;;16.50;99.90;;;;;;5032545;28;20559;-89
2022/09/06 01:42:53;;;;;;;;;;;16.50;99.90;;;;;;5030837;28;19913;-88
2022/09/06 01:45:21;;;;;;;;;;;16.50;99.90;;;;;;5034389;28;19931;-90
2022/09/06 01:47:49;;;;;;;;;;;16.40;99.90;;;;;;5033861;28;19919;-88
2022/09/06 01:50:24;;;;;;;;;;;16.40;99.90;;;;;;5032264;28;19948;-89
2022/09/06 01:52:52;;;;;;;;;;;16.40;99.90;;;;;;5049167;28;19940;-89
2022/09/06 01:55:30;;;;;;;;;;;16.30;99.90;;;;;;5031725;28;20381;-88
2022/09/06 01:58:02;;;;;;;;;;;16.30;99.90;;;;;;5032260;28;19967;-88
2022/09/06 02:00:28;;;;;;;;;;;16.30;99.90;;;;;;5032855;28;20019;-90
2022/09/06 02:02:59;;;;;;;;;;;16.30;99.90;;;;;;5032484;28;20044;-89
2022/09/06 02:05:40;;;;;;;;;;;16.30;99.90;;;;;;5031637;28;19917;-89
2022/09/06 02:08:09;;;;;;;;;;;16.20;99.90;;;;;;5015485;28;19948;-90
2022/09/06 02:10:53;;;;;;;;;;;16.20;99.90;;;;;;5033456;28;20031;-89
2022/09/06 02:13:21;;;;;;;;;;;16.20;99.90;;;;;;5032196;28;20373;-89
2022/09/06 02:16:00;;;;;;;;;;;16.20;99.90;;;;;;5028255;28;19918;-89
2022/09/06 02:18:32;;;;;;;;;;;16.20;99.90;;;;;;5032109;28;20519;-88
2022/09/06 02:21:00;;;;;;;;;;;16.20;99.90;;;;;;5028750;28;19996;-88
2022/09/06 02:23:29;;;;;;;;;;;16.20;99.90;;;;;;5029201;28;20012;-88
2022/09/06 02:25:57;;;;;;;;;;;16.20;99.90;;;;;;5028599;28;19913;-89
2022/09/06 02:28:23;;;;;;;;;;;16.10;99.90;;;;;;5028583;28;19913;-88
2022/09/06 02:30:50;;;;;;;;;;;16.20;99.90;;;;;;5028341;28;20056;-89
2022/09/06 02:33:18;;;;;;;;;;;16.10;99.90;;;;;;5012183;28;19921;-88
2022/09/06 02:35:45;;;;;;;;;;;16.10;99.90;;;;;;5011907;28;19918;-90
2022/09/06 02:38:11;;;;;;;;;;;16.10;99.90;;;;;;5028639;28;19964;-89
2022/09/06 02:40:37;;;;;;;;;;;16.10;99.90;;;;;;5027936;28;19914;-89
2022/09/06 02:43:03;;;;;;;;;;;16.10;99.90;;;;;;5012184;28;19918;-89
2022/09/06 02:45:29;;;;;;;;;;;16.10;99.90;;;;;;5014822;28;19924;-90
2022/09/06 02:47:54;;;;;;;;;;;16.10;99.90;;;;;;5032020;28;19920;-90
2022/09/06 02:50:20;;;;;;;;;;;16.10;99.90;;;;;;5031702;28;20369;-89
2022/09/06 02:52:59;;;;;;;;;;;16.10;99.90;;;;;;5016042;28;19921;-88
2022/09/06 02:55:25;;;;;;;;;;;16.10;99.90;;;;;;5031982;28;19916;-89
2022/09/06 02:57:51;;;;;;;;;;;16.10;99.90;;;;;;5037096;28;19909;-89
2022/09/06 03:00:17;;;;;;;;;;;16.10;99.90;;;;;;5022738;28;19936;-89
2022/09/06 03:02:43;;;;;;;;;;;16.10;99.90;;;;;;5025654;28;19913;-89
2022/09/06 03:05:10;;;;;;;;;;;16.10;99.90;;;;;;5035347;28;19948;-90
2022/09/06 03:07:35;;;;;;;;;;;16.20;99.90;;;;;;5034395;28;20471;-89
2022/09/06 03:10:02;;;;;;;;;;;16.30;99.90;;;;;;5018263;28;19917;-89
2022/09/06 03:12:27;;;;;;;;;;;16.30;99.90;;;;;;5034555;28;20392;-90
2022/09/06 03:14:54;;;;;;;;;;;16.30;99.90;;;;;;5049867;28;19920;-89
2022/09/06 03:17:19;;;;;;;;;;;16.40;99.90;;;;;;5027620;28;20008;-90
2022/09/06 03:19:45;;;;;;;;;;;16.40;99.90;;;;;;5010959;28;20137;-88
2022/09/06 03:22:11;;;;;;;;;;;16.40;99.90;;;;;;5007946;28;20008;-88
2022/09/06 03:24:37;;;;;;;;;;;16.30;99.90;;;;;;4994086;28;19918;-91
2022/09/06 03:27:02;;;;;;;;;;;16.30;99.90;;;;;;5006791;28;20008;-90
2022/09/06 03:29:28;;;;;;;;;;;16.30;99.90;;;;;;5004790;28;20393;-90
2022/09/06 03:31:53;;;;;;;;;;;16.30;99.90;;;;;;5019449;28;19945;-90
2022/09/06 03:34:19;;;;;;;;;;;16.20;99.90;;;;;;5032503;28;19921;-89
2022/09/06 03:36:45;;;;;;;;;;;16.20;99.90;;;;;;5032254;28;19980;-89
2022/09/06 03:39:10;;;;;;;;;;;16.20;99.90;;;;;;5014786;28;19913;-89
2022/09/06 03:41:37;;;;;;;;;;;16.20;99.90;;;;;;5013486;28;20409;-88
2022/09/06 03:44:03;;;;;;;;;;;16.20;99.90;;;;;;4997155;28;19971;-89
2022/09/06 03:46:29;;;;;;;;;;;16.20;99.90;;;;;;5007528;28;19921;-89
2022/09/06 03:48:58;;;;;;;;;;;16.20;99.90;;;;;;5033517;28;19917;-89
2022/09/06 03:51:24;;;;;;;;;;;16.10;99.90;;;;;;5034131;28;19913;-89
2022/09/06 03:53:49;;;;;;;;;;;16.10;99.90;;;;;;5016512;28;19918;-90
2022/09/06 03:56:15;;;;;;;;;;;16.10;99.90;;;;;;5025094;28;19939;-89
2022/09/06 03:58:43;;;;;;;;;;;16.00;99.90;;;;;;5035932;28;19917;-91
2022/09/06 04:01:09;;;;;;;;;;;16.00;99.90;;;;;;5016186;28;19917;-89
2022/09/06 04:03:35;;;;;;;;;;;16.00;99.90;;;;;;5032466;28;19921;-88
2022/09/06 04:06:01;;;;;;;;;;;15.90;99.90;;;;;;5035957;28;19913;-88
2022/09/06 04:08:27;;;;;;;;;;;15.90;99.90;;;;;;5037264;28;19921;-89
2022/09/06 04:10:53;;;;;;;;;;;15.80;99.90;;;;;;5004590;28;19932;-88
2022/09/06 04:13:19;;;;;;;;;;;15.80;99.90;;;;;;5016929;28;19919;-89
2022/09/06 04:15:46;;;;;;;;;;;15.80;99.90;;;;;;5033791;28;19924;-88
2022/09/06 04:18:13;;;;;;;;;;;15.80;99.90;;;;;;5043534;28;19913;-89
2022/09/06 04:20:38;;;;;;;;;;;15.70;99.90;;;;;;5066821;28;19913;-89
2022/09/06 04:23:04;;;;;;;;;;;15.70;99.90;;;;;;5042820;28;19924;-89
2022/09/06 04:25:30;;;;;;;;;;;15.70;99.90;;;;;;5040422;28;19913;-89
2022/09/06 04:27:55;;;;;;;;;;;15.60;99.90;;;;;;5035527;28;19917;-88
2022/09/06 04:30:21;;;;;;;;;;;15.60;99.90;;;;;;5018632;28;19913;-88
2022/09/06 04:32:47;;;;;;;;;;;15.60;99.90;;;;;;5018560;28;19956;-89
2022/09/06 04:35:12;;;;;;;;;;;15.60;99.90;;;;;;5052210;28;19917;-89
2022/09/06 04:37:38;;;;;;;;;;;15.70;99.90;;;;;;5037088;28;19913;-90
2022/09/06 04:40:04;;;;;;;;;;;15.70;99.90;;;;;;5035479;28;20003;-90
2022/09/06 04:42:30;;;;;;;;;;;15.80;99.90;;;;;;5034169;28;20004;-88
2022/09/06 04:44:55;;;;;;;;;;;15.80;99.90;;;;;;5033863;28;19925;-88
2022/09/06 04:47:21;;;;;;;;;;;15.80;99.90;;;;;;5014882;28;19917;-89
2022/09/06 04:49:48;;;;;;;;;;;15.80;99.90;;;;;;5014823;28;20412;-88
2022/09/06 04:52:14;;;;;;;;;;;15.80;99.90;;;;;;5026617;28;19917;-88
2022/09/06 04:54:40;;;;;;;;;;;15.80;99.90;;;;;;5019229;28;19917;-89
2022/09/06 04:57:05;;;;;;;;;;;15.80;99.90;;;;;;5037973;28;20117;-90
2022/09/06 04:59:31;;;;;;;;;;;15.80;99.90;;;;;;5034445;28;20408;-89
2022/09/06 05:01:57;;;;;;;;;;;15.80;99.90;;;;;;5029685;28;20004;-89
2022/09/06 05:04:23;;;;;;;;;;;15.80;99.90;;;;;;5030290;28;19913;-90
2022/09/06 05:06:48;;;;;;;;;;;15.90;99.90;;;;;;5025886;28;20369;-88
2022/09/06 05:09:14;;;;;;;;;;;15.90;99.90;;;;;;5018125;28;19917;-88
2022/09/06 05:11:40;;;;;;;;;;;16.00;99.90;;;;;;5039450;28;19995;-90
2022/09/06 05:14:06;;;;;;;;;;;16.00;99.90;;;;;;5033553;28;20365;-90
2022/09/06 05:16:31;;;;;;;;;;;16.10;99.90;;;;;;5033235;28;19912;-89
2022/09/06 05:18:57;;;;;;;;;;;16.20;99.90;;;;;;5016081;28;19917;-90
2022/09/06 05:21:23;;;;;;;;;;;16.30;99.90;;;;;;5012995;28;20295;-89
2022/09/06 05:23:48;;;;;;;;;;;16.40;99.90;;;;;;4996123;28;19979;-91
2022/09/06 05:26:14;;;;;;;;;;;16.40;99.90;;;;;;5010636;28;19917;-89
2022/09/06 05:28:40;;;;;;;;;;;16.50;99.90;;;;;;5016588;28;20381;-89
2022/09/06 05:31:09;;;;;;;;;;;16.60;99.90;;;;;;5015673;28;20432;-90
2022/09/06 05:33:35;;;;;;;;;;;16.70;99.90;;;;;;5031983;28;20370;-90
2022/09/06 05:36:02;;;;;;;;;;;16.80;99.90;;;;;;5015033;28;19921;-91
2022/09/06 05:38:27;;;;;;;;;;;16.80;99.90;;;;;;5018922;28;19917;-91
2022/09/06 05:40:53;;;;;;;;;;;16.90;99.90;;;;;;5015392;28;19964;-90
2022/09/06 05:43:19;;;;;;;;;;;17.00;99.90;;;;;;5013653;28;19940;-90
2022/09/06 05:45:44;;;;;;;;;;;17.00;99.90;;;;;;5000902;28;19963;-89
2022/09/06 05:48:10;;;;;;;;;;;17.10;99.90;;;;;;5032436;28;20008;-89
2022/09/06 05:50:36;;;;;;;;;;;17.20;99.90;;;;;;5031972;28;19921;-88
2022/09/06 05:53:01;;;;;;;;;;;17.30;99.90;;;;;;5015117;28;19921;-90
2022/09/06 05:55:27;;;;;;;;;;;17.40;99.90;;;;;;5031330;28;20328;-89
2022/09/06 05:57:52;;;;;;;;;;;17.40;99.90;;;;;;5031723;28;20020;-88
2022/09/06 06:00:18;;;;;;;;;;;17.40;99.90;;;;;;5015028;28;19944;-90
2022/09/06 06:02:47;;;;;;;;;;;17.40;99.90;;;;;;5031236;28;19913;-90
2022/09/06 06:05:13;;;;;;;;;;;17.40;99.90;;;;;;5031222;28;19913;-89
2022/09/06 06:07:39;;;;;;;;;;;17.40;99.90;;;;;;5032262;28;19974;-89
2022/09/06 06:10:05;;;;;;;;;;;17.40;99.90;;;;;;5015107;28;19914;-88
2022/09/06 06:12:33;;;;;;;;;;;17.40;99.90;;;;;;5011402;28;19985;-89
2022/09/06 06:14:59;;;;;;;;;;;17.60;99.90;;;;;;5000787;28;19967;-89
2022/09/06 06:17:25;;;;;;;;;;;17.60;99.90;;;;;;5030702;28;20324;-89
2022/09/06 06:19:50;;;;;;;;;;;17.70;99.90;;;;;;5031501;28;19917;-89
2022/09/06 06:22:16;;;;;;;;;;;17.90;99.90;;;;;;5030965;28;19928;-90
2022/09/06 06:24:42;;;;;;;;;;;18.10;99.90;;;;;;5030609;28;19913;-89
2022/09/06 06:27:07;;;;;;;;;;;18.20;99.90;;;;;;5015062;28;19913;-90
2022/09/06 06:29:33;;;;;;;;;;;18.50;99.90;;;;;;5030990;28;19914;-88
2022/09/06 06:31:58;;;;;;;;;;;18.80;99.90;;;;;;5031478;28;19932;-89
2022/09/06 06:34:24;;;;;;;;;;;19.20;99.90;;;;;;5030989;28;19921;-90
2022/09/06 06:36:50;;;;;;;;;;;19.60;99.90;;;;;;5030728;28;19917;-88
2022/09/06 06:39:15;;;;;;;;;;;19.80;99.90;;;;;;5030849;28;19939;-86
2022/09/06 06:41:41;;;;;;;;;;;19.70;99.90;;;;;;5031498;28;19960;-89
2022/09/06 06:44:26;;;;;;;;;;;19.70;99.90;;;;;;5030995;28;19939;-90
2022/09/06 06:46:51;;;;;;;;;;;19.50;99.90;;;;;;5031189;28;19928;-88
2022/09/06 06:49:17;;;;;;;;;;;19.40;99.90;;;;;;5032163;28;19913;-89
2022/09/06 06:51:43;;;;;;;;;;;19.20;99.90;;;;;;5027849;28;20373;-88
2022/09/06 06:54:10;;;;;;;;;;;19.10;99.90;;;;;;4985872;28;22159;-88
2022/09/06 06:56:37;;;;;;;;;;;19.20;99.90;;;;;;5019134;28;19996;-89
2022/09/06 06:59:04;;;;;;;;;;;19.40;99.90;;;;;;5016174;28;19921;-90
2022/09/06 07:01:30;;;;;;;;;;;19.50;99.90;;;;;;5022137;28;19959;-89
2022/09/06 07:03:56;;;;;;;;;;;19.70;99.90;;;;;;5031391;28;19913;-89
2022/09/06 07:06:22;;;;;;;;;;;19.80;99.90;;;;;;5014103;28;19917;-89
2022/09/06 07:08:48;;;;;;;;;;;19.90;99.90;;;;;;5029867;28;19958;-89
2022/09/06 07:11:15;;;;;;;;;;;20.10;99.90;;;;;;5011318;28;19913;-89
2022/09/06 07:13:41;;;;;;;;;;;20.20;99.90;;;;;;5011970;28;19916;-89
2022/09/06 07:16:13;;;;;;;;;;;20.30;99.90;;;;;;4998308;28;19917;-90
2022/09/06 07:18:40;;;;;;;;;;;20.20;99.90;;;;;;5027655;28;19974;-89
2022/09/06 07:21:27;;;;;;;;;;;20.30;99.90;;;;;;5014230;28;19921;-89
2022/09/06 07:23:54;;;;;;;;;;;20.60;99.90;;;;;;5039374;28;19912;-89
2022/09/06 07:26:21;;;;;;;;;;;20.80;99.90;;;;;;5037614;28;19920;-90
2022/09/06 07:28:47;;;;;;;;;;;21.00;99.90;;;;;;4999868;28;20278;-88
2022/09/06 07:31:12;;;;;;;;;;;21.20;99.90;;;;;;5001736;28;19925;-89
2022/09/06 07:33:38;;;;;;;;;;;21.30;99.90;;;;;;5034105;28;19916;-90
2022/09/06 07:36:05;;;;;;;;;;;21.20;99.90;;;;;;5045987;28;19924;-90
2022/09/06 07:38:32;;;;;;;;;;;21.40;99.90;;;;;;5009776;28;19913;-88
2022/09/06 07:40:59;;;;;;;;;;;21.90;99.90;;;;;;5023126;28;19920;-90
2022/09/06 07:43:25;;;;;;;;;;;21.80;99.90;;;;;;5034473;28;19999;-89
2022/09/06 07:46:11;;;;;;;;;;;21.90;99.90;;;;;;5042632;28;20278;-89
2022/09/06 07:48:38;;;;;;;;;;;21.70;99.90;;;;;;5033622;28;19968;-90
2022/09/06 07:51:30;;;;;;;;;;;21.50;99.90;;;;;;5034263;28;20377;-90
2022/09/06 07:53:56;;;;;;;;;;;21.20;99.90;;;;;;5032590;28;19924;-88
2022/09/06 07:56:23;;;;;;;;;;;21.00;99.90;;;;;;5025436;28;20306;-89
2022/09/06 07:58:49;;;;;;;;;;;21.10;99.90;;;;;;5034258;28;19921;-89
2022/09/06 08:01:29;;;;;;;;;;;21.30;99.90;;;;;;5022839;28;20383;-88
2022/09/06 08:03:56;;;;;;;;;;;21.40;99.90;;;;;;5035206;28;19963;-88
2022/09/06 08:06:21;;;;;;;;;;;21.70;99.90;;;;;;5033977;28;20540;-88
2022/09/06 08:08:48;;;;;;;;;;;22.00;99.90;;;;;;5018174;28;19963;-88
2022/09/06 08:11:13;;;;;;;;;;;22.20;99.90;;;;;;5035703;28;19992;-89
2022/09/06 08:13:39;;;;;;;;;;;22.20;99.90;;;;;;5018005;28;19952;-88
2022/09/06 08:16:08;;;;;;;;;;;22.30;99.90;;;;;;5033509;28;20401;-91
2022/09/06 08:18:34;;;;;;;;;;;22.10;99.90;;;;;;5034501;28;19919;-88
2022/09/06 08:21:08;;;;;;;;;;;22.00;99.90;;;;;;5034120;28;19948;-88
2022/09/06 08:23:34;;;;;;;;;;;21.80;99.90;;;;;;5018122;28;19979;-88
2022/09/06 08:26:00;;;;;;;;;;;21.70;99.90;;;;;;5034040;28;19962;-89
2022/09/06 08:28:25;;;;;;;;;;;21.60;99.90;;;;;;5051046;28;19913;-89
2022/09/06 08:30:51;;;;;;;;;;;21.40;99.90;;;;;;5050711;28;19952;-88
2022/09/06 08:33:20;;;;;;;;;;;21.50;99.90;;;;;;5049885;28;19917;-87
2022/09/06 08:35:59;;;;;;;;;;;21.50;99.90;;;;;;5028570;28;20087;-88
2022/09/06 08:38:25;;;;;;;;;;;21.40;99.90;;;;;;5031562;28;20343;-89
2022/09/06 08:40:52;;;;;;;;;;;21.30;99.90;;;;;;5014922;28;20437;-88
2022/09/06 08:43:19;;;;;;;;;;;21.20;99.90;;;;;;5028269;28;19917;-90
2022/09/06 08:45:46;;;;;;;;;;;21.20;99.90;;;;;;5012232;28;20382;-90
2022/09/06 08:48:12;;;;;;;;;;;21.20;99.90;;;;;;5039661;28;19914;-89
2022/09/06 08:50:41;;;;;;;;;;;21.20;99.90;;;;;;5033139;28;19913;-89
2022/09/06 08:53:15;;;;;;;;;;;21.10;99.90;;;;;;5031847;28;19957;-88
2022/09/06 08:55:43;;;;;;;;;;;21.20;99.90;;;;;;5031605;28;19916;-89
2022/09/06 08:58:36;;;;;;;;;;;21.00;99.90;;;;;;5031641;28;19963;-89
2022/09/06 09:01:05;;;;;;;;;;;21.10;99.90;;;;;;5031444;28;19913;-92
2022/09/06 09:03:33;;;;;;;;;;;21.00;99.90;;;;;;5031154;28;19960;-89
2022/09/06 09:06:02;;;;;;;;;;;21.10;99.90;;;;;;5032243;28;19913;-88
2022/09/06 09:08:27;;;;;;;;;;;21.10;99.90;;;;;;5031261;28;19955;-93
2022/09/06 09:11:15;;;;;;;;;;;21.10;99.90;;;;;;5036078;28;19936;-88
2022/09/06 09:13:58;;;;;;;;;;;21.20;99.90;;;;;;5030804;28;19964;-90
2022/09/06 09:16:24;;;;;;;;;;;21.20;99.90;;;;;;5027488;28;19924;-90
2022/09/06 09:18:54;;;;;;;;;;;21.30;99.90;;;;;;5027766;28;19917;-89
2022/09/06 09:21:21;;;;;;;;;;;21.40;99.90;;;;;;5011166;28;19913;-88
2022/09/06 09:23:54;;;;;;;;;;;21.50;99.90;;;;;;5028047;28;19921;-90
2022/09/06 09:26:21;;;;;;;;;;;21.60;99.90;;;;;;5030523;28;20369;-90
2022/09/06 09:29:06;;;;;;;;;;;21.70;99.90;;;;;;5044529;28;19942;-88
2022/09/06 09:31:36;;;;;;;;;;;21.80;99.90;;;;;;5039293;28;19914;-88
2022/09/06 09:34:03;;;;;;;;;;;21.80;99.90;;;;;;5030389;28;19917;-89
2022/09/06 09:36:29;;;;;;;;;;;21.90;99.90;;;;;;5028249;28;19956;-88
2022/09/06 09:38:57;;;;;;;;;;;21.90;99.90;;;;;;5013923;28;19917;-91
2022/09/06 09:41:27;;;;;;;;;;;22.00;99.90;;;;;;5024278;28;19913;-89
2022/09/06 09:44:03;;;;;;;;;;;22.00;99.90;;;;;;5029610;28;20012;-89
2022/09/06 09:46:33;;;;;;;;;;;21.90;99.90;;;;;;5015248;28;19925;-90
2022/09/06 09:49:03;;;;;;;;;;;21.90;99.90;;;;;;5030503;28;19913;-90
2022/09/06 09:51:29;;;;;;;;;;;22.10;99.90;;;;;;4997553;28;19917;-89
2022/09/06 09:54:00;;;;;;;;;;;22.20;99.90;;;;;;4993558;28;19914;-88
2022/09/06 09:56:27;;;;;;;;;;;22.10;99.90;;;;;;4993777;28;19917;-88
2022/09/06 09:58:53;;;;;;;;;;;22.20;99.90;;;;;;5004495;28;19924;-88
2022/09/06 10:01:29;;;;;;;;;;;22.30;99.90;;;;;;5030161;28;19913;-87
2022/09/06 10:04:03;;;;;;;;;;;22.30;99.90;;;;;;5030242;28;20471;-86
2022/09/06 10:06:29;;;;;;;;;;;22.20;99.90;;;;;;5029607;28;19917;-88
2022/09/06 10:08:55;;;;;;;;;;;22.20;99.90;;;;;;5030472;28;19920;-90
2022/09/06 10:11:37;;;;;;;;;;;22.20;99.90;;;;;;5030788;28;19914;-87
2022/09/06 10:14:10;;;;;;;;;;;22.20;99.90;;;;;;5014587;28;19913;-87
2022/09/06 10:16:42;;;;;;;;;;;22.10;99.90;;;;;;5029592;28;19921;-88
2022/09/06 10:19:20;;;;;;;;;;;22.10;99.90;;;;;;5029807;28;20012;-87
2022/09/06 10:21:47;;;;;;;;;;;22.10;99.90;;;;;;5009565;28;20378;-87
2022/09/06 10:24:35;;;;;;;;;;;22.20;99.90;;;;;;5006076;28;19917;-88
2022/09/06 10:27:01;;;;;;;;;;;22.20;99.90;;;;;;5012343;28;20110;-88
2022/09/06 10:29:30;;;;;;;;;;;22.40;99.90;;;;;;5045637;28;19925;-92
2022/09/06 10:31:56;;;;;;;;;;;22.50;99.90;;;;;;5021413;28;19921;-89
2022/09/06 10:34:21;;;;;;;;;;;22.60;99.90;;;;;;5047710;28;20013;-87
2022/09/06 10:36:51;;;;;;;;;;;22.70;99.90;;;;;;5051431;28;19913;-89
2022/09/06 10:39:29;;;;;;;;;;;22.80;99.90;;;;;;5029727;28;20007;-88
2022/09/06 10:42:00;;;;;;;;;;;22.80;99.90;;;;;;5033823;28;20381;-88
2022/09/06 10:44:25;;;;;;;;;;;22.80;99.90;;;;;;5028803;28;19917;-88
2022/09/06 10:46:54;;;;;;;;;;;22.90;99.90;;;;;;5012543;28;20300;-87
2022/09/06 10:49:20;;;;;;;;;;;23.20;99.90;;;;;;5028078;28;19918;-87
2022/09/06 10:51:49;;;;;;;;;;;23.30;99.90;;;;;;5027800;28;19928;-88
2022/09/06 10:54:23;;;;;;;;;;;23.40;99.90;;;;;;5029685;28;19913;-87
2022/09/06 10:56:52;;;;;;;;;;;23.40;99.90;;;;;;5032773;28;19977;-89
2022/09/06 10:59:24;;;;;;;;;;;23.50;99.90;;;;;;5014032;28;19913;-88
2022/09/06 11:02:12;;;;;;;;;;;23.70;99.90;;;;;;5024830;28;19923;-87
2022/09/06 11:04:39;;;;;;;;;;;23.80;99.90;;;;;;5026666;28;19963;-90
2022/09/06 11:07:14;;;;;;;;;;;23.90;99.90;;;;;;5032496;28;19917;-88
2022/09/06 11:09:47;;;;;;;;;;;23.90;99.90;;;;;;5015522;28;20557;-87
2022/09/06 11:12:32;;;;;;;;;;;24.00;99.90;;;;;;5037330;28;19925;-88
2022/09/06 11:15:00;;;;;;;;;;;24.10;99.90;;;;;;5018087;28;19924;-88
2022/09/06 11:17:47;;;;;;;;;;;24.20;99.90;;;;;;5033232;28;19917;-88
2022/09/06 11:20:17;;;;;;;;;;;24.10;99.90;;;;;;5044270;28;19913;-88
2022/09/06 11:22:49;;;;;;;;;;;24.00;99.90;;;;;;5017455;28;20353;-87
2022/09/06 11:25:17;;;;;;;;;;;24.00;99.90;;;;;;5045841;28;19913;-87
2022/09/06 11:27:46;;;;;;;;;;;24.10;99.90;;;;;;5045105;28;19920;-88
2022/09/06 11:30:15;;;;;;;;;;;24.10;99.90;;;;;;5017359;28;19924;-87
2022/09/06 11:32:43;;;;;;;;;;;24.00;99.90;;;;;;5020706;28;20378;-88
2022/09/06 11:35:19;;;;;;;;;;;23.90;99.90;;;;;;5028864;28;19921;-87
2022/09/06 11:37:48;;;;;;;;;;;24.00;99.90;;;;;;5017175;28;19936;-87
2022/09/06 11:40:25;;;;;;;;;;;24.00;99.90;;;;;;5010569;28;20000;-88
2022/09/06 11:42:51;;;;;;;;;;;24.00;99.90;;;;;;5033163;28;19913;-88
2022/09/06 11:45:21;;;;;;;;;;;24.00;99.90;;;;;;5042763;28;20012;-88
2022/09/06 11:47:49;;;;;;;;;;;24.00;99.90;;;;;;5000301;28;20007;-88
2022/09/06 11:50:20;;;;;;;;;;;24.00;99.90;;;;;;5022232;28;19913;-88
2022/09/06 11:52:58;;;;;;;;;;;24.20;99.90;;;;;;5033456;28;20293;-87
2022/09/06 11:55:42;;;;;;;;;;;24.30;99.90;;;;;;5016704;28;19917;-88
2022/09/06 11:58:09;;;;;;;;;;;24.60;99.90;;;;;;5032260;28;19932;-86
2022/09/06 12:00:35;;;;;;;;;;;24.90;99.90;;;;;;5031201;28;20398;-86
2022/09/06 12:03:00;;;;;;;;;;;25.10;99.90;;;;;;5036504;28;19909;-87
2022/09/06 12:05:30;;;;;;;;;;;25.40;99.90;;;;;;5035227;28;19960;-86
2022/09/06 12:08:11;;;;;;;;;;;25.60;99.90;;;;;;5031789;28;20464;-85
2022/09/06 12:10:45;;;;;;;;;;;25.70;99.90;;;;;;5031004;28;20011;-89
2022/09/06 12:13:30;;;;;;;;;;;25.70;99.90;;;;;;5031022;28;19921;-86
2022/09/06 12:15:58;;;;;;;;;;;25.70;99.90;;;;;;5027013;28;19963;-86
2022/09/06 12:18:43;;;;;;;;;;;25.60;99.90;;;;;;5011413;28;19963;-86
2022/09/06 12:21:09;;;;;;;;;;;25.50;99.90;;;;;;5011911;28;19914;-86
2022/09/06 12:23:35;;;;;;;;;;;25.30;99.90;;;;;;5028620;28;19997;-86
2022/09/06 12:26:04;;;;;;;;;;;25.20;99.90;;;;;;5021395;28;19964;-87
2022/09/06 12:28:46;;;;;;;;;;;25.20;99.90;;;;;;5019007;28;20187;-86
2022/09/06 12:31:29;;;;;;;;;;;25.10;99.90;;;;;;5004531;28;19920;-86
2022/09/06 12:33:56;;;;;;;;;;;25.00;99.90;;;;;;5031308;28;19914;-86
2022/09/06 12:36:29;;;;;;;;;;;25.20;99.80;;;;;;5031391;28;19919;-84
2022/09/06 12:38:56;;;;;;;;;;;25.30;99.00;;;;;;5012015;28;19919;-86
2022/09/06 12:41:22;;;;;;;;;;;25.40;98.50;;;;;;5029545;28;19957;-85
2022/09/06 12:43:48;;;;;;;;;;;25.50;97.00;;;;;;5041381;28;19920;-85
2022/09/06 12:46:14;;;;;;;;;;;25.50;97.90;;;;;;5038397;28;19924;-86
2022/09/06 12:48:43;;;;;;;;;;;25.50;95.90;;;;;;5019861;28;19917;-85
2022/09/06 12:51:14;;;;;;;;;;;25.60;97.50;;;;;;5027563;28;19913;-86
2022/09/06 12:53:48;;;;;;;;;;;25.90;97.90;;;;;;5010937;28;20511;-86
2022/09/06 12:56:18;;;;;;;;;;;26.10;97.90;;;;;;5018489;28;19917;-86
2022/09/06 12:58:43;;;;;;;;;;;26.40;97.80;;;;;;5005271;28;20349;-86
2022/09/06 13:01:21;;;;;;;;;;;26.60;96.90;;;;;;5013298;28;19964;-86
2022/09/06 13:04:01;;;;;;;;;;;26.80;95.50;;;;;;5037145;28;19924;-86
2022/09/06 13:06:28;;;;;;;;;;;26.90;96.30;;;;;;5020259;28;20011;-87
2022/09/06 13:08:55;;;;;;;;;;;26.80;96.20;;;;;;5012758;28;19921;-86
2022/09/06 13:11:24;;;;;;;;;;;26.70;96.00;;;;;;4994079;28;19917;-86
2022/09/06 13:13:53;;;;;;;;;;;26.60;94.50;;;;;;4995088;28;20301;-86
2022/09/06 13:16:26;;;;;;;;;;;26.40;94.90;;;;;;5003272;28;19924;-86
2022/09/06 13:18:52;;;;;;;;;;;26.20;95.30;;;;;;5025775;28;19913;-87
2022/09/06 13:21:29;;;;;;;;;;;26.10;96.40;;;;;;5009314;28;20039;-87
2022/09/06 13:23:57;;;;;;;;;;;25.90;97.20;;;;;;5012009;28;19917;-86
2022/09/06 13:26:38;;;;;;;;;;;25.70;97.80;;;;;;5011487;28;19917;-87
2022/09/06 13:29:11;;;;;;;;;;;25.60;97.60;;;;;;5016881;28;20293;-87
2022/09/06 13:31:37;;;;;;;;;;;25.40;97.20;;;;;;5038034;28;19996;-86
2022/09/06 13:34:02;;;;;;;;;;;25.30;96.80;;;;;;5042985;28;20016;-86
2022/09/06 13:36:32;;;;;;;;;;;25.30;95.80;;;;;;5021372;28;19932;-87
2022/09/06 13:39:00;;;;;;;;;;;25.30;93.90;;;;;;5018589;28;20604;-86
2022/09/06 13:41:26;;;;;;;;;;;25.30;95.00;;;;;;5006320;28;19910;-87
2022/09/06 13:43:58;;;;;;;;;;;25.40;95.60;;;;;;5012768;28;19924;-87
2022/09/06 13:46:24;;;;;;;;;;;25.50;94.70;;;;;;4999363;28;20404;-86
2022/09/06 13:48:53;;;;;;;;;;;25.60;94.60;;;;;;5015994;28;19914;-86
2022/09/06 13:51:19;;;;;;;;;;;25.70;95.30;;;;;;5010653;28;19913;-85
2022/09/06 13:53:44;;;;;;;;;;;25.70;94.90;;;;;;5025164;28;19918;-87
2022/09/06 13:56:10;;;;;;;;;;;25.70;93.10;;;;;;5017704;28;19944;-88
2022/09/06 13:58:36;;;;;;;;;;;25.70;94.00;;;;;;5026349;28;19923;-87
2022/09/06 14:01:02;;;;;;;;;;;25.70;94.20;;;;;;5024317;28;19928;-87
2022/09/06 14:03:29;;;;;;;;;;;25.70;93.40;;;;;;4993962;28;19921;-87
2022/09/06 14:05:55;;;;;;;;;;;25.70;94.50;;;;;;5036845;28;19912;-87
2022/09/06 14:08:21;;;;;;;;;;;25.70;95.60;;;;;;5004571;28;20279;-87
2022/09/06 14:10:47;;;;;;;;;;;25.70;95.80;;;;;;4998383;28;19917;-87
2022/09/06 14:13:14;;;;;;;;;;;25.70;94.80;;;;;;5000373;28;19979;-87
2022/09/06 14:15:39;;;;;;;;;;;25.70;93.90;;;;;;5012004;28;20020;-87
2022/09/06 14:18:05;;;;;;;;;;;25.60;92.70;;;;;;5026413;28;20012;-87
2022/09/06 14:20:31;;;;;;;;;;;25.50;94.20;;;;;;5024541;28;19922;-88
2022/09/06 14:22:57;;;;;;;;;;;25.50;94.20;;;;;;5010968;28;20366;-88
2022/09/06 14:25:22;;;;;;;;;;;25.30;93.60;;;;;;5008542;28;19917;-89